Time;durP1;ratioP1;P1;durP2;ratioP2;P2;SDS_P1;SDS_P2;PMS_P1;PMS_P2;Temp;Humidity;BMP_temperature;BMP_pressure;BME280_temperature;BME280_humidity;BME280_pressure;Samples;Min_cycle;Max_cycle;Signal;HPM_P1;HPM_P2
2023/01/31 00:02:39;;;;;;;7.67;3.70;;;;;;;2.54;72.75;97634.66;6252565;28;20242;-38
2023/01/31 00:05:42;;;;;;;4.07;3.17;;;;;;;2.38;72.69;97653.34;6254198;28;20287;-38
2023/01/31 00:08:46;;;;;;;6.97;3.63;;;;;;;2.49;72.40;97651.00;6248688;28;20238;-39
2023/01/31 00:11:48;;;;;;;7.77;3.63;;;;;;;2.49;72.08;97653.63;6241313;28;20335;-38
2023/01/31 00:14:50;;;;;;;4.10;3.20;;;;;;;2.57;71.63;97656.13;6241776;28;20333;-38
2023/01/31 00:17:54;;;;;;;5.73;3.43;;;;;;;2.51;72.17;97648.19;6250958;28;20256;-38
2023/01/31 00:20:56;;;;;;;5.57;3.63;;;;;;;2.54;73.23;97650.44;6250129;28;20238;-38
2023/01/31 00:23:58;;;;;;;6.90;3.93;;;;;;;2.57;70.81;97642.16;6253342;28;20476;-38
2023/01/31 00:27:01;;;;;;;3.17;2.60;;;;;;;2.58;71.29;97656.94;6252706;28;20314;-38
2023/01/31 00:30:03;;;;;;;6.10;4.10;;;;;;;2.58;72.65;97665.63;6253400;28;20238;-37
2023/01/31 00:33:05;;;;;;;6.30;3.93;;;;;;;2.47;71.28;97625.91;6250096;28;20250;-38
2023/01/31 00:36:15;;;;;;;7.30;3.87;;;;;;;2.69;70.21;97647.69;6250839;28;20303;-38
2023/01/31 00:39:18;;;;;;;5.00;3.57;;;;;;;2.67;70.93;97631.31;6240612;28;20250;-38
2023/01/31 00:42:20;;;;;;;4.70;2.90;;;;;;;2.58;71.52;97651.69;6252963;28;20282;-38
2023/01/31 00:45:23;;;;;;;4.87;3.40;;;;;;;2.56;72.19;97654.50;6253222;28;20230;-38
2023/01/31 00:48:25;;;;;;;4.90;3.30;;;;;;;2.58;72.36;97626.19;6252108;28;20605;-38
2023/01/31 00:51:27;;;;;;;4.50;3.10;;;;;;;2.39;72.59;97641.81;6245779;28;20222;-38
2023/01/31 00:54:30;;;;;;;5.87;2.93;;;;;;;2.48;72.15;97669.59;6252926;28;20264;-38
2023/01/31 00:57:32;;;;;;;4.53;3.33;;;;;;;2.50;72.40;97673.66;6252766;28;20736;-38
2023/01/31 01:00:35;;;;;;;6.73;3.67;;;;;;;2.48;71.38;97677.50;6252479;28;20321;-38
2023/01/31 01:03:39;;;;;;;6.30;3.27;;;;;;;2.51;70.51;97709.50;6250036;28;20240;-38
2023/01/31 01:06:41;;;;;;;4.77;3.47;;;;;;;2.53;70.92;97685.63;6250404;28;20238;-38
2023/01/31 01:09:45;;;;;;;4.90;3.77;;;;;;;2.60;71.40;97686.47;6249150;28;20311;-38
2023/01/31 01:12:48;;;;;;;4.13;3.37;;;;;;;2.57;71.59;97676.34;6252488;28;20231;-38
2023/01/31 01:15:50;;;;;;;4.27;3.37;;;;;;;2.55;72.59;97662.56;6239411;28;20254;-38
2023/01/31 01:18:56;;;;;;;4.93;3.40;;;;;;;2.24;72.71;97650.59;6252539;28;20258;-38
2023/01/31 01:21:58;;;;;;;9.07;3.97;;;;;;;2.36;72.45;97655.34;6251819;28;20248;-38
2023/01/31 01:25:00;;;;;;;4.73;2.97;;;;;;;2.48;72.19;97672.25;6250688;28;20379;-38
2023/01/31 01:28:02;;;;;;;5.67;3.50;;;;;;;2.51;72.24;97651.63;6244084;28;20237;-38
2023/01/31 01:31:06;;;;;;;4.73;3.27;;;;;;;2.32;71.40;97618.94;6248348;28;20582;-38
2023/01/31 01:34:12;;;;;;;6.00;3.23;;;;;;;2.41;71.08;97639.81;6252328;28;20244;-38
2023/01/31 01:37:18;;;;;;;5.93;3.30;;;;;;;2.63;70.73;97654.56;6256991;28;20242;-38
2023/01/31 01:40:21;;;;;;;5.97;2.90;;;;;;;2.64;70.54;97653.53;6253535;28;20686;-38
2023/01/31 01:43:59;;;;;;;5.03;3.37;;;;;;;2.80;68.82;97663.75;6248526;28;20749;-38
2023/01/31 01:47:02;;;;;;;3.50;2.90;;;;;;;2.72;68.99;97645.50;6224368;28;20281;-38
2023/01/31 01:50:08;;;;;;;4.37;2.80;;;;;;;2.48;69.78;97635.44;6228587;28;20275;-39
2023/01/31 01:53:21;;;;;;;5.60;3.20;;;;;;;2.64;68.86;97643.03;6212017;28;20228;-38
2023/01/31 01:56:31;;;;;;;7.17;3.37;;;;;;;2.70;67.87;97646.69;6232171;28;20266;-38
2023/01/31 01:59:40;;;;;;;5.30;3.40;;;;;;;2.79;68.30;97669.22;6225399;28;20227;-39
2023/01/31 02:02:45;;;;;;;6.10;2.80;;;;;;;2.76;68.71;97654.66;6224070;28;20220;-40
2023/01/31 02:05:53;;;;;;;4.97;2.93;;;;;;;2.66;69.23;97680.47;6228439;28;20251;-39
2023/01/31 02:08:57;;;;;;;4.33;2.80;;;;;;;2.79;68.39;97664.75;6228519;28;20291;-38
2023/01/31 02:11:59;;;;;;;4.57;2.80;;;;;;;2.81;68.86;97667.22;6212210;28;20318;-39
2023/01/31 02:15:02;;;;;;;5.70;2.77;;;;;;;2.79;69.22;97666.59;6226756;28;20235;-38
2023/01/31 02:18:05;;;;;;;4.30;3.13;;;;;;;2.86;69.15;97659.56;6227633;28;20247;-38
2023/01/31 02:21:41;;;;;;;5.53;2.60;;;;;;;2.83;68.92;97665.19;6234015;28;20302;-39
2023/01/31 02:25:21;;;;;;;3.43;3.03;;;;;;;2.77;69.89;97663.34;6253238;28;20720;-38
2023/01/31 02:28:55;;;;;;;3.87;2.83;;;;;;;2.72;69.48;97678.88;6246243;28;20235;-38
2023/01/31 02:32:34;;;;;;;6.60;2.67;;;;;;;2.74;69.24;97684.75;6246518;28;20540;-38
2023/01/31 02:35:51;;;;;;;5.43;3.17;;;;;;;2.72;67.92;97695.47;6252649;28;20223;-39
2023/01/31 02:39:20;;;;;;;5.97;2.93;;;;;;;2.77;68.65;97690.47;6251970;28;20265;-38
2023/01/31 02:42:33;;;;;;;5.03;2.90;;;;;;;2.82;67.92;97695.16;6242387;28;20231;-38
2023/01/31 02:45:44;;;;;;;8.50;2.97;;;;;;;2.81;67.77;97690.91;6245020;28;20227;-39
2023/01/31 02:49:00;;;;;;;5.17;2.93;;;;;;;2.88;67.84;97706.72;6244607;28;20316;-38
2023/01/31 02:52:27;;;;;;;3.77;2.70;;;;;;;2.87;66.59;97692.75;6251344;28;20602;-38
2023/01/31 02:59:09;;;;;;;5.30;3.17;;;;;;;2.93;66.86;97688.53;6253951;28;20235;-38
2023/01/31 03:02:12;;;;;;;5.27;2.43;;;;;;;2.88;66.96;97688.31;6251973;28;20242;-38
2023/01/31 03:05:18;;;;;;;5.87;2.70;;;;;;;2.85;67.71;97684.22;6253475;28;20728;-38
2023/01/31 03:08:22;;;;;;;5.13;2.43;;;;;;;2.82;67.73;97701.22;6251070;28;20226;-38
2023/01/31 03:11:32;;;;;;;3.40;2.43;;;;;;;2.87;67.59;97707.72;6252447;28;20281;-38
2023/01/31 03:15:00;;;;;;;3.20;2.60;;;;;;;2.92;67.61;97715.84;6254681;28;20288;-38
2023/01/31 03:18:15;;;;;;;4.93;3.20;;;;;;;2.89;68.28;97716.22;6251965;28;20696;-38
2023/01/31 03:21:26;;;;;;;6.00;2.77;;;;;;;2.79;67.99;97712.13;6254431;28;20200;-38
2023/01/31 03:24:30;;;;;;;4.77;2.80;;;;;;;2.79;68.49;97725.28;6254417;28;20235;-38
2023/01/31 03:27:34;;;;;;;4.80;2.37;;;;;;;2.93;67.48;97734.06;6248651;28;20235;-38
2023/01/31 03:30:52;;;;;;;5.77;2.90;;;;;;;2.93;67.08;97730.63;6253178;28;20238;-38
2023/01/31 03:34:00;;;;;;;7.13;2.90;;;;;;;2.91;66.82;97735.28;6245344;28;20732;-38
2023/01/31 03:37:35;;;;;;;3.77;2.50;;;;;;;2.94;65.97;97733.06;6253867;28;20238;-38
2023/01/31 03:41:04;;;;;;;4.70;2.50;;;;;;;3.02;66.34;97737.38;6211012;28;20228;-38
2023/01/31 03:44:31;;;;;;;6.37;2.60;;;;;;;2.97;66.83;97764.28;6225976;28;20625;-38
2023/01/31 03:47:41;;;;;;;6.60;2.80;;;;;;;2.95;66.08;97744.41;6225192;28;20247;-38
2023/01/31 03:50:52;;;;;;;4.37;2.27;;;;;;;2.81;66.86;97725.91;6228308;28;20235;-38
2023/01/31 03:54:01;;;;;;;4.10;2.10;;;;;;;2.91;66.96;97749.25;6218126;28;20860;-38
2023/01/31 03:57:13;;;;;;;3.63;2.20;;;;;;;2.91;67.43;97765.03;6228849;28;20247;-38
2023/01/31 04:00:20;;;;;;;4.60;2.37;;;;;;;2.92;66.29;97755.31;6221246;28;20603;-38
2023/01/31 04:03:31;;;;;;;5.20;2.70;;;;;;;2.90;66.07;97763.38;6225005;28;20718;-38
2023/01/31 04:06:33;;;;;;;4.00;2.10;;;;;;;2.95;66.27;97768.09;6225681;28;20239;-38
2023/01/31 04:09:37;;;;;;;5.30;2.37;;;;;;;3.04;66.42;97777.47;6214245;28;20223;-38
2023/01/31 04:12:40;;;;;;;4.40;2.20;;;;;;;2.79;65.96;97733.16;6228080;28;20638;-38
2023/01/31 04:15:42;;;;;;;4.17;2.20;;;;;;;3.02;65.87;97785.56;6232355;28;20228;-38
2023/01/31 04:18:45;;;;;;;3.80;2.60;;;;;;;3.10;65.24;97782.81;6233586;28;20250;-38
2023/01/31 04:21:47;;;;;;;7.87;2.40;;;;;;;3.16;64.88;97775.94;6253941;28;20321;-38
2023/01/31 04:24:49;;;;;;;5.47;2.27;;;;;;;3.16;65.15;97783.84;6253549;28;20515;-39
2023/01/31 04:27:51;;;;;;;4.10;2.30;;;;;;;3.16;65.54;97775.13;6253808;28;20787;-38
2023/01/31 04:30:55;;;;;;;6.03;2.53;;;;;;;2.99;65.10;97758.81;6253484;28;20226;-38
2023/01/31 04:33:58;;;;;;;3.17;2.00;;;;;;;3.15;66.05;97784.81;6248980;28;20653;-38
2023/01/31 04:37:01;;;;;;;5.50;2.10;;;;;;;2.94;66.18;97771.72;6255766;28;20296;-38
2023/01/31 04:40:04;;;;;;;4.47;3.27;;;;;;;2.99;66.07;97777.22;6253150;28;20369;-38
2023/01/31 04:43:07;;;;;;;6.17;3.30;;;;;;;3.02;66.29;97782.13;6247793;28;20235;-38
2023/01/31 04:46:09;;;;;;;4.50;2.57;;;;;;;3.14;66.36;97782.41;6252842;28;20223;-39
2023/01/31 04:49:12;;;;;;;3.50;2.27;;;;;;;2.87;66.15;97747.19;6253225;28;20235;-39
2023/01/31 04:52:15;;;;;;;4.27;2.33;;;;;;;3.01;66.30;97796.28;6245006;28;20262;-40
2023/01/31 04:55:17;;;;;;;7.93;2.77;;;;;;;2.98;66.35;97771.16;6252601;28;20760;-39
2023/01/31 04:58:20;;;;;;;4.63;2.47;;;;;;;2.97;66.42;97773.97;6250247;28;20620;-39
2023/01/31 05:01:23;;;;;;;3.80;2.10;;;;;;;2.90;66.83;97784.44;6249442;28;20716;-38
2023/01/31 05:04:25;;;;;;;3.83;2.30;;;;;;;2.87;66.21;97802.44;6253155;28;20255;-38
2023/01/31 05:07:27;;;;;;;5.37;2.57;;;;;;;2.89;66.10;97811.75;6252148;28;20252;-38
2023/01/31 05:10:30;;;;;;;4.63;2.20;;;;;;;2.99;65.81;97816.69;6248013;28;20681;-39
2023/01/31 05:13:36;;;;;;;6.27;2.60;;;;;;;3.00;66.04;97813.06;6252051;28;20261;-39
2023/01/31 05:16:39;;;;;;;6.57;2.80;;;;;;;2.95;66.07;97811.00;6253394;28;20254;-38
2023/01/31 05:19:42;;;;;;;5.10;2.30;;;;;;;2.96;65.63;97811.84;6252384;28;20242;-38
2023/01/31 05:22:50;;;;;;;6.53;2.60;;;;;;;3.10;65.31;97801.22;6254734;28;20227;-39
2023/01/31 05:25:52;;;;;;;4.93;2.50;;;;;;;3.01;65.62;97812.88;6255391;28;20285;-38
2023/01/31 05:28:54;;;;;;;4.50;2.43;;;;;;;2.97;65.51;97814.25;6250190;28;20300;-38
2023/01/31 05:31:59;;;;;;;6.97;2.43;;;;;;;2.98;65.77;97807.19;6257333;28;20284;-38
2023/01/31 05:35:01;;;;;;;7.23;2.60;;;;;;;2.98;65.09;97815.06;6253441;28;20235;-39
2023/01/31 05:38:04;;;;;;;6.70;2.70;;;;;;;3.00;65.02;97811.22;6250099;28;20235;-38
2023/01/31 05:41:06;;;;;;;3.83;2.40;;;;;;;3.15;64.69;97808.50;6255041;28;20227;-38
2023/01/31 05:44:10;;;;;;;4.50;2.30;;;;;;;2.99;64.92;97828.03;6251742;28;20223;-38
2023/01/31 05:47:12;;;;;;;4.73;2.47;;;;;;;2.96;66.19;97830.25;6254469;28;20296;-38
2023/01/31 05:50:15;;;;;;;7.47;2.17;;;;;;;2.98;65.20;97833.50;6257427;28;20710;-38
2023/01/31 05:53:17;;;;;;;4.40;2.30;;;;;;;3.08;65.56;97844.50;6256694;28;20230;-38
2023/01/31 05:56:20;;;;;;;4.70;2.50;;;;;;;3.01;65.55;97848.91;6247669;28;20241;-38
2023/01/31 05:59:22;;;;;;;7.33;2.77;;;;;;;3.03;65.41;97846.91;6256398;28;20287;-38
2023/01/31 06:02:25;;;;;;;5.63;3.00;;;;;;;3.06;65.11;97862.31;6237596;28;20229;-38
2023/01/31 06:05:27;;;;;;;6.07;2.33;;;;;;;3.08;65.17;97870.84;6256803;28;20223;-38
2023/01/31 06:08:30;;;;;;;3.70;2.40;;;;;;;3.09;64.62;97868.00;6256275;28;20219;-38
2023/01/31 06:11:33;;;;;;;4.33;2.53;;;;;;;3.12;65.07;97894.97;6252527;28;20697;-39
2023/01/31 06:14:35;;;;;;;3.87;2.20;;;;;;;3.04;64.82;97874.84;6252042;28;20703;-38
2023/01/31 06:17:38;;;;;;;7.20;2.50;;;;;;;3.18;64.75;97904.72;6254546;28;20599;-38
2023/01/31 06:20:40;;;;;;;5.07;2.50;;;;;;;3.10;64.62;97913.56;6260753;28;20359;-38
2023/01/31 06:23:45;;;;;;;4.77;2.50;;;;;;;2.91;65.53;97898.41;6260854;28;20220;-39
2023/01/31 06:26:47;;;;;;;6.07;2.70;;;;;;;3.00;65.77;97899.91;6256736;28;20254;-38
2023/01/31 06:29:50;;;;;;;7.80;2.97;;;;;;;2.98;66.12;97912.44;6252391;28;20227;-38
2023/01/31 06:32:52;;;;;;;7.73;2.57;;;;;;;2.95;66.63;97904.91;6255815;28;20273;-38
2023/01/31 06:35:58;;;;;;;5.17;2.60;;;;;;;2.96;66.05;97906.56;6251706;28;20247;-38
2023/01/31 06:39:00;;;;;;;6.87;2.93;;;;;;;2.94;66.21;97913.81;6254585;28;20227;-37
2023/01/31 06:42:04;;;;;;;7.10;2.47;;;;;;;2.94;66.53;97945.38;6255820;28;20199;-38
2023/01/31 06:45:07;;;;;;;10.20;3.50;;;;;;;2.83;66.59;97918.56;6255210;28;20230;-38
2023/01/31 06:48:10;;;;;;;6.17;2.80;;;;;;;2.85;66.52;97921.81;6255644;28;20329;-38
2023/01/31 06:51:12;;;;;;;3.70;2.13;;;;;;;2.87;66.12;97929.53;6256111;28;20694;-38
2023/01/31 06:54:14;;;;;;;7.77;2.90;;;;;;;2.95;66.52;97920.69;6247825;28;20211;-38
2023/01/31 06:57:16;;;;;;;4.83;2.40;;;;;;;2.72;66.26;97898.03;6255476;28;20250;-38
2023/01/31 07:00:28;;;;;;;5.27;2.60;;;;;;;2.88;66.49;97946.13;6255397;28;20223;-38
2023/01/31 07:03:45;;;;;;;3.67;2.27;;;;;;;2.72;66.22;97920.88;6248577;28;20314;-38
2023/01/31 07:06:47;;;;;;;4.57;2.37;;;;;;;2.88;66.37;97939.06;6254507;28;20632;-38
2023/01/31 07:09:49;;;;;;;2.97;1.93;;;;;;;2.93;66.33;97949.03;6247768;28;20719;-38
2023/01/31 07:12:51;;;;;;;4.97;2.30;;;;;;;2.96;65.08;97935.50;6254068;28;20243;-38
2023/01/31 07:15:54;;;;;;;6.33;2.23;;;;;;;2.93;65.20;97954.28;6255129;28;20317;-38
2023/01/31 07:18:57;;;;;;;8.60;2.93;;;;;;;3.04;64.55;97962.50;6250917;28;20234;-38
2023/01/31 07:21:59;;;;;;;7.97;2.80;;;;;;;2.96;64.16;97954.75;6255678;28;20388;-39
2023/01/31 07:25:02;;;;;;;5.80;2.73;;;;;;;3.02;63.64;97956.63;6250883;28;20325;-38
2023/01/31 07:28:04;;;;;;;3.57;1.73;;;;;;;3.14;63.61;97956.13;6246819;28;20247;-38
2023/01/31 07:31:12;;;;;;;4.00;2.13;;;;;;;3.18;62.08;97976.63;6251063;28;20635;-37
2023/01/31 07:34:14;;;;;;;4.60;1.80;;;;;;;3.38;60.89;97982.06;6249235;28;20646;-37
2023/01/31 07:37:17;;;;;;;5.33;1.87;;;;;;;3.52;59.08;97980.38;6254688;28;20384;-39
2023/01/31 07:40:19;;;;;;;6.80;1.90;;;;;;;3.44;59.90;97988.41;6251197;28;20333;-38
2023/01/31 07:43:21;;;;;;;5.23;2.07;;;;;;;3.35;59.82;97993.81;6256357;28;20258;-38
2023/01/31 07:46:24;;;;;;;6.80;2.00;;;;;;;3.32;59.01;97996.00;6255566;28;20230;-37
2023/01/31 07:49:27;;;;;;;5.30;1.80;;;;;;;3.31;58.75;98003.09;6250061;28;20288;-38
2023/01/31 07:52:31;;;;;;;4.97;1.73;;;;;;;3.36;59.22;98018.31;6258887;28;20724;-37
2023/01/31 07:55:33;;;;;;;6.13;2.00;;;;;;;3.32;59.03;98007.34;6251058;28;20284;-38
2023/01/31 07:58:38;;;;;;;4.77;1.80;;;;;;;3.33;59.09;98005.53;6253885;28;20238;-38
2023/01/31 08:05:01;;;;;;;6.43;1.90;;;;;;;3.43;59.79;97998.13;6251850;28;20326;-38
2023/01/31 08:08:09;;;;;;;5.83;2.07;;;;;;;3.63;59.75;98033.34;6251497;28;20605;-38
2023/01/31 08:11:11;;;;;;;6.27;2.13;;;;;;;3.57;60.29;98012.25;6251372;28;20231;-37
2023/01/31 08:14:13;;;;;;;7.70;2.40;;;;;;;3.57;60.35;98028.03;6253664;28;20308;-38
2023/01/31 08:17:16;;;;;;;6.23;2.40;;;;;;;3.66;60.33;98032.19;6254059;28;20223;-38
2023/01/31 08:20:18;;;;;;;6.87;2.20;;;;;;;3.81;60.45;98029.47;6249988;28;20231;-37
2023/01/31 08:23:20;;;;;;;5.73;2.17;;;;;;;3.91;59.43;98039.69;6253490;28;20304;-37
2023/01/31 08:26:22;;;;;;;3.00;2.07;;;;;;;3.91;58.82;98048.41;6253597;28;20572;-37
2023/01/31 08:29:26;;;;;;;4.63;1.90;;;;;;;4.09;58.72;98056.69;6251887;28;20283;-37
2023/01/31 08:32:28;;;;;;;3.43;1.83;;;;;;;3.96;59.06;98068.94;6253528;28;20642;-37
2023/01/31 08:35:31;;;;;;;6.83;2.40;;;;;;;3.88;60.37;98072.50;6249676;28;20721;-37
2023/01/31 08:38:33;;;;;;;5.30;2.20;;;;;;;3.68;61.65;98072.31;6252146;28;20352;-37
2023/01/31 08:41:36;;;;;;;7.07;2.00;;;;;;;3.38;62.69;98084.78;6253100;28;20318;-37
2023/01/31 08:44:39;;;;;;;7.90;2.40;;;;;;;3.26;62.53;98076.56;6250025;28;20606;-37
2023/01/31 08:47:41;;;;;;;5.00;2.37;;;;;;;3.25;63.51;98092.50;6253583;28;20226;-37
2023/01/31 08:50:43;;;;;;;5.17;2.47;;;;;;;3.16;64.75;98091.00;6252339;28;20300;-37
2023/01/31 08:53:45;;;;;;;7.43;2.77;;;;;;;2.97;64.64;98087.94;6253669;28;20330;-37
2023/01/31 08:56:47;;;;;;;7.20;3.27;;;;;;;2.96;65.68;98088.94;6251810;28;20705;-37
2023/01/31 08:59:49;;;;;;;6.60;2.77;;;;;;;2.90;65.31;98081.75;6251946;28;20262;-37
2023/01/31 09:02:56;;;;;;;10.50;3.17;;;;;;;2.85;65.28;98079.69;6249781;28;20339;-37
2023/01/31 09:06:00;;;;;;;4.73;2.77;;;;;;;2.80;65.46;98089.94;6254278;28;20237;-37
2023/01/31 09:09:03;;;;;;;4.33;2.13;;;;;;;2.97;65.24;98089.75;6252285;28;20261;-37
2023/01/31 09:12:05;;;;;;;6.13;3.17;;;;;;;3.02;64.53;98077.69;6250810;28;20331;-37
2023/01/31 09:15:07;;;;;;;4.63;2.50;;;;;;;3.15;64.25;98084.09;6253365;28;20225;-37
2023/01/31 09:18:10;;;;;;;5.00;2.37;;;;;;;3.22;63.14;98091.09;6252280;28;20664;-37
2023/01/31 09:21:17;;;;;;;5.90;2.33;;;;;;;3.48;62.21;98102.91;6257098;28;20325;-37
2023/01/31 09:24:19;;;;;;;5.87;2.57;;;;;;;3.70;61.80;98083.50;6252599;28;20594;-37
2023/01/31 09:27:21;;;;;;;8.33;2.73;;;;;;;3.89;61.58;98095.22;6249082;28;20233;-37
2023/01/31 09:30:23;;;;;;;6.40;2.73;;;;;;;3.81;59.83;98069.81;6241111;28;20223;-37
2023/01/31 09:33:25;;;;;;;5.10;2.60;;;;;;;4.01;59.71;98103.44;6252672;28;20617;-37
2023/01/31 09:36:28;;;;;;;6.53;2.60;;;;;;;4.05;59.70;98102.06;6252680;28;20235;-37
2023/01/31 09:39:31;;;;;;;8.57;2.77;;;;;;;4.09;59.25;98116.50;6252643;28;20616;-37
2023/01/31 09:42:43;;;;;;;4.77;2.70;;;;;;;4.06;58.98;98078.13;6253128;28;20257;-37
2023/01/31 09:45:47;;;;;;;3.60;2.00;;;;;;;4.24;58.57;98082.97;6242989;28;20628;-37
2023/01/31 09:48:54;;;;;;;5.93;2.60;;;;;;;4.33;58.13;98086.25;6252150;28;20770;-37
2023/01/31 09:52:01;;;;;;;6.03;2.20;;;;;;;4.12;57.13;98073.91;6251596;28;20333;-37
2023/01/31 09:55:06;;;;;;;3.83;2.30;;;;;;;4.37;56.76;98090.94;6251752;28;20378;-37
2023/01/31 09:58:35;;;;;;;4.50;2.10;;;;;;;4.59;56.08;98091.72;6251678;28;20722;-37
2023/01/31 10:01:56;;;;;;;4.97;1.87;;;;;;;4.65;55.54;98087.50;6242995;28;20318;-38
2023/01/31 10:05:06;;;;;;;6.23;1.70;;;;;;;4.72;55.08;98087.50;6251945;28;20231;-37
2023/01/31 10:08:19;;;;;;;4.30;1.90;;;;;;;4.63;54.05;98092.97;6250429;28;20232;-37
2023/01/31 10:11:39;;;;;;;5.47;2.00;;;;;;;4.60;54.39;98088.06;6254173;28;20309;-37
2023/01/31 10:14:49;;;;;;;4.83;1.93;;;;;;;4.71;54.03;98078.78;6253058;28;20580;-37
2023/01/31 10:18:15;;;;;;;7.33;1.70;;;;;;;4.73;53.46;98083.88;6253081;28;20232;-37
2023/01/31 10:21:23;;;;;;;3.57;1.60;;;;;;;5.11;53.44;98050.75;6251428;28;20239;-37
2023/01/31 10:24:32;;;;;;;3.43;1.30;;;;;;;5.77;52.82;98089.75;6257805;28;20228;-38
2023/01/31 10:27:43;;;;;;;5.27;1.90;;;;;;;5.26;52.35;98066.44;6255305;28;20247;-38
2023/01/31 10:30:55;;;;;;;3.23;1.83;;;;;;;5.33;52.64;98066.47;6255621;28;20590;-37
2023/01/31 10:34:26;;;;;;;5.27;1.60;;;;;;;5.51;51.09;98063.25;6256061;28;20286;-37
2023/01/31 10:37:36;;;;;;;5.60;2.63;;;;;;;5.28;51.68;98080.28;6250461;28;20238;-38
2023/01/31 10:40:42;;;;;;;4.43;1.90;;;;;;;5.35;53.01;98110.16;6252346;28;20254;-37
2023/01/31 10:44:02;;;;;;;3.53;1.30;;;;;;;5.06;51.59;98057.63;6256036;28;20239;-38
2023/01/31 10:47:11;;;;;;;3.07;1.60;;;;;;;5.23;51.84;98085.34;6253544;28;20227;-38
2023/01/31 10:50:17;;;;;;;4.57;1.90;;;;;;;5.20;51.43;98090.19;6252754;28;20608;-38
2023/01/31 10:53:43;;;;;;;2.57;1.60;;;;;;;5.19;52.43;98081.47;6252370;28;20226;-38
2023/01/31 10:56:48;;;;;;;4.00;1.40;;;;;;;5.05;52.30;98107.00;6255309;28;20248;-38
2023/01/31 10:59:55;;;;;;;5.43;2.40;;;;;;;4.81;52.47;98083.72;6247925;28;20240;-38
2023/01/31 11:03:02;;;;;;;4.03;2.00;;;;;;;4.89;52.16;98094.94;6246338;28;20584;-37
2023/01/31 11:06:05;;;;;;;5.03;1.77;;;;;;;5.04;52.09;98073.69;6254867;28;20251;-38
2023/01/31 11:09:10;;;;;;;5.47;2.07;;;;;;;5.01;50.80;98083.81;6250999;28;20276;-37
2023/01/31 11:12:12;;;;;;;3.53;1.40;;;;;;;5.07;51.50;98075.91;6248682;28;20223;-37
2023/01/31 11:15:18;;;;;;;5.20;1.80;;;;;;;5.66;50.86;98058.63;6251579;28;20591;-38
2023/01/31 11:18:31;;;;;;;2.60;1.60;;;;;;;5.90;50.29;98081.84;6253298;28;20213;-37
2023/01/31 11:21:35;;;;;;;4.97;1.93;;;;;;;5.66;50.80;98067.38;6254192;28;20319;-38
2023/01/31 11:24:40;;;;;;;4.10;1.60;;;;;;;5.58;52.00;98061.47;6251225;28;20693;-38
2023/01/31 11:27:42;;;;;;;4.33;2.00;;;;;;;5.28;52.73;98072.38;6252962;28;20227;-38
2023/01/31 11:30:49;;;;;;;6.40;2.00;;;;;;;5.10;53.18;98078.16;6254329;28;20234;-38
2023/01/31 11:33:57;;;;;;;3.53;2.00;;;;;;;5.16;54.16;98089.78;6253135;28;20233;-38
2023/01/31 11:37:17;;;;;;;5.67;2.00;;;;;;;5.22;53.74;98091.66;6252554;28;20326;-38
2023/01/31 11:40:29;;;;;;;6.60;2.00;;;;;;;4.94;55.17;98078.50;6253049;28;20245;-38
2023/01/31 11:43:31;;;;;;;3.77;2.10;;;;;;;4.75;56.04;98077.41;6252703;28;20351;-37
2023/01/31 11:46:43;;;;;;;3.90;2.10;;;;;;;4.58;57.00;98069.00;6251118;28;20232;-37
2023/01/31 11:49:49;;;;;;;6.60;2.33;;;;;;;4.73;56.56;98054.84;6251386;28;20306;-37
2023/01/31 11:53:16;;;;;;;6.43;2.73;;;;;;;5.09;55.82;98079.19;6253969;28;20236;-37
2023/01/31 11:56:33;;;;;;;3.57;2.00;;;;;;;5.03;55.85;98068.63;6251029;28;20626;-37
2023/01/31 11:59:35;;;;;;;7.13;2.67;;;;;;;4.83;55.60;98061.41;6251688;28;20789;-37
2023/01/31 12:02:40;;;;;;;5.83;2.37;;;;;;;4.98;56.58;98056.00;6245387;28;20237;-37
2023/01/31 12:05:45;;;;;;;6.67;2.40;;;;;;;5.14;55.20;98065.41;6257167;28;20223;-37
2023/01/31 12:08:53;;;;;;;6.70;2.70;;;;;;;5.27;54.36;98064.63;6253660;28;20227;-37
2023/01/31 12:12:02;;;;;;;3.87;2.20;;;;;;;5.46;53.32;98052.47;6253023;28;20318;-37
2023/01/31 12:15:15;;;;;;;5.27;2.00;;;;;;;5.20;52.54;98066.44;6251938;28;20221;-37
2023/01/31 12:18:37;;;;;;;9.87;2.40;;;;;;;5.06;53.45;98053.16;6250294;28;20215;-37
2023/01/31 12:22:17;;;;;;;6.13;2.40;;;;;;;4.83;53.75;98050.84;6252154;28;20253;-37
2023/01/31 12:25:19;;;;;;;4.93;2.40;;;;;;;4.47;55.17;98044.94;6251267;28;20331;-37
2023/01/31 12:28:43;;;;;;;4.30;2.53;;;;;;;4.32;55.72;98060.88;6253210;28;20239;-38
2023/01/31 12:32:07;;;;;;;3.97;2.10;;;;;;;4.18;56.69;98051.25;6251753;28;20322;-37
2023/01/31 12:35:15;;;;;;;5.47;2.20;;;;;;;4.10;56.55;98039.03;6254055;28;20239;-38
2023/01/31 12:38:33;;;;;;;3.43;1.93;;;;;;;4.19;55.44;98040.53;6252322;28;20281;-38
2023/01/31 12:42:12;;;;;;;7.97;1.73;;;;;;;4.20;55.52;98030.78;6251603;28;20719;-38
2023/01/31 12:45:29;;;;;;;3.57;1.90;;;;;;;4.54;55.05;98027.34;6249511;28;20223;-39
2023/01/31 12:48:49;;;;;;;4.03;1.83;;;;;;;4.74;55.06;98038.81;6252901;28;20781;-38
2023/01/31 12:51:59;;;;;;;5.57;2.40;;;;;;;4.74;53.50;98051.22;6249598;28;20232;-38
2023/01/31 12:55:25;;;;;;;5.47;1.87;;;;;;;4.74;53.25;98043.28;6250385;28;20330;-38
2023/01/31 12:58:38;;;;;;;5.23;1.70;;;;;;;4.73;54.45;98039.84;6250986;28;20587;-38
2023/01/31 13:01:49;;;;;;;5.90;1.83;;;;;;;4.75;53.08;98029.09;6247934;28;20231;-37
2023/01/31 13:04:58;;;;;;;3.20;1.60;;;;;;;4.83;54.19;98036.84;6254936;28;20227;-38
2023/01/31 13:08:20;;;;;;;5.13;2.13;;;;;;;4.57;54.03;98038.31;6251053;28;20341;-39
2023/01/31 13:11:30;;;;;;;3.63;1.83;;;;;;;4.70;53.64;98026.22;6241738;28;20644;-38
2023/01/31 13:14:38;;;;;;;5.33;1.70;;;;;;;4.85;53.16;98011.06;6245413;28;20238;-40
2023/01/31 13:17:42;;;;;;;5.37;1.80;;;;;;;4.99;53.17;98028.56;6252916;28;20232;-38
2023/01/31 13:20:53;;;;;;;5.57;1.60;;;;;;;5.17;53.26;98018.28;6252368;28;20274;-37
2023/01/31 13:24:08;;;;;;;4.37;2.17;;;;;;;5.12;52.23;98033.06;6249269;28;20727;-37
2023/01/31 13:27:18;;;;;;;2.87;1.50;;;;;;;4.68;53.10;98013.22;6251827;28;20653;-38
2023/01/31 13:30:41;;;;;;;4.17;1.50;;;;;;;4.73;53.13;98009.97;6251431;28;20234;-38
2023/01/31 13:34:18;;;;;;;5.10;1.67;;;;;;;4.82;52.74;98019.34;6252108;28;20300;-38
2023/01/31 13:37:21;;;;;;;5.43;1.60;;;;;;;4.56;52.85;98001.59;6252249;28;20228;-38
2023/01/31 13:40:28;;;;;;;6.67;1.87;;;;;;;4.65;52.75;98017.06;6252437;28;20325;-37
2023/01/31 13:43:30;;;;;;;4.10;1.47;;;;;;;4.62;52.38;98003.44;6252262;28;20239;-38
2023/01/31 13:47:16;;;;;;;5.73;1.50;;;;;;;4.53;52.24;98002.81;6253429;28;20246;-38
2023/01/31 13:50:36;;;;;;;6.17;1.50;;;;;;;4.59;51.63;98009.94;6193966;28;20605;-38
2023/01/31 13:53:51;;;;;;;6.23;1.60;;;;;;;4.43;51.61;97996.22;6251597;28;20221;-37
2023/01/31 13:56:57;;;;;;;3.83;0.97;;;;;;;4.39;52.18;97986.09;6255659;28;20243;-38
2023/01/31 14:00:22;;;;;;;3.47;1.30;;;;;;;4.44;50.92;97977.59;6254443;28;20378;-37
2023/01/31 14:03:25;;;;;;;6.20;1.23;;;;;;;4.53;51.98;97979.06;6216421;28;20313;-37
2023/01/31 14:06:53;;;;;;;7.73;1.70;;;;;;;4.58;51.06;97975.81;6261252;28;20362;-37
2023/01/31 14:09:55;;;;;;;4.87;1.47;;;;;;;4.51;50.47;97967.06;6256115;28;20631;-37
2023/01/31 14:13:19;;;;;;;4.73;1.50;;;;;;;4.34;49.78;97963.94;6256511;28;20225;-37
2023/01/31 14:16:41;;;;;;;3.93;1.30;;;;;;;4.44;50.88;97972.31;6257092;28;20244;-37
2023/01/31 14:19:44;;;;;;;4.13;1.20;;;;;;;4.52;50.21;97971.31;6251488;28;20266;-37
2023/01/31 14:23:26;;;;;;;4.93;1.37;;;;;;;4.50;49.09;97960.16;6256005;28;20238;-38
2023/01/31 14:26:41;;;;;;;6.60;1.10;;;;;;;4.52;49.30;97961.56;6253303;28;20228;-37
2023/01/31 14:29:47;;;;;;;4.93;1.27;;;;;;;4.31;49.97;97967.78;6249245;28;20716;-37
2023/01/31 14:33:11;;;;;;;3.43;1.23;;;;;;;4.21;50.47;97963.84;6255972;28;20228;-37
2023/01/31 14:36:27;;;;;;;2.40;1.20;;;;;;;4.17;51.20;97952.88;6252204;28;21210;-37
2023/01/31 14:40:08;;;;;;;7.30;1.30;;;;;;;4.23;54.04;97949.47;6253561;28;20243;-37
2023/01/31 14:43:31;;;;;;;1.83;1.20;;;;;;;4.16;53.30;97963.63;6259610;28;20223;-37
2023/01/31 14:46:58;;;;;;;3.57;1.27;;;;;;;4.24;50.78;97942.38;6255479;28;20588;-38
2023/01/31 14:50:38;;;;;;;5.83;1.63;;;;;;;4.05;52.53;97939.44;6254859;28;20602;-38
2023/01/31 14:54:06;;;;;;;7.67;1.57;;;;;;;4.04;52.65;97935.19;6215294;28;20613;-37
2023/01/31 14:57:30;;;;;;;4.60;1.47;;;;;;;3.91;52.35;97944.81;6254836;28;20255;-37
2023/01/31 15:00:45;;;;;;;4.83;1.50;;;;;;;3.99;51.97;97952.56;6252585;28;20230;-37
2023/01/31 15:03:50;;;;;;;3.53;1.60;;;;;;;4.08;52.08;97935.59;6252591;28;20234;-37
2023/01/31 15:06:54;;;;;;;4.37;1.50;;;;;;;3.91;52.75;97907.91;6252533;28;20313;-37